sensor_id;sensor_type;location;lat;lon;timestamp;P1;durP1;ratioP1;P2;durP2;ratioP2
59786;SDS011;45672;51.612;5.536;2024-03-07T00:02:12;50.50;;;28.05;;
59786;SDS011;45672;51.612;5.536;2024-03-07T00:04:38;46.33;;;27.40;;
59786;SDS011;45672;51.612;5.536;2024-03-07T00:07:03;48.17;;;28.42;;
59786;SDS011;45672;51.612;5.536;2024-03-07T00:09:31;48.25;;;28.33;;
59786;SDS011;45672;51.612;5.536;2024-03-07T00:11:56;49.95;;;28.45;;
59786;SDS011;45672;51.612;5.536;2024-03-07T00:14:22;52.70;;;29.92;;
59786;SDS011;45672;51.612;5.536;2024-03-07T00:16:51;51.88;;;28.23;;
59786;SDS011;45672;51.612;5.536;2024-03-07T00:19:17;50.15;;;28.33;;
59786;SDS011;45672;51.612;5.536;2024-03-07T00:21:43;46.90;;;27.80;;
59786;SDS011;45672;51.612;5.536;2024-03-07T00:24:08;47.47;;;28.60;;
59786;SDS011;45672;51.612;5.536;2024-03-07T00:26:33;50.17;;;27.88;;
59786;SDS011;45672;51.612;5.536;2024-03-07T00:28:58;50.58;;;28.58;;
59786;SDS011;45672;51.612;5.536;2024-03-07T00:31:24;49.92;;;27.92;;
59786;SDS011;45672;51.612;5.536;2024-03-07T00:33:49;48.15;;;29.05;;
59786;SDS011;45672;51.612;5.536;2024-03-07T00:36:14;49.53;;;27.83;;
59786;SDS011;45672;51.612;5.536;2024-03-07T00:38:40;51.70;;;28.98;;
59786;SDS011;45672;51.612;5.536;2024-03-07T00:41:06;51.60;;;27.55;;
59786;SDS011;45672;51.612;5.536;2024-03-07T00:43:32;50.50;;;29.15;;
59786;SDS011;45672;51.612;5.536;2024-03-07T00:45:57;54.47;;;30.48;;
59786;SDS011;45672;51.612;5.536;2024-03-07T00:48:23;46.17;;;26.67;;
59786;SDS011;45672;51.612;5.536;2024-03-07T00:50:50;53.25;;;29.52;;
59786;SDS011;45672;51.612;5.536;2024-03-07T00:53:15;48.72;;;28.55;;
59786;SDS011;45672;51.612;5.536;2024-03-07T00:55:41;51.90;;;28.10;;
59786;SDS011;45672;51.612;5.536;2024-03-07T00:58:06;49.55;;;26.30;;
59786;SDS011;45672;51.612;5.536;2024-03-07T01:00:31;50.92;;;29.70;;
59786;SDS011;45672;51.612;5.536;2024-03-07T01:02:57;54.38;;;28.38;;
59786;SDS011;45672;51.612;5.536;2024-03-07T01:05:22;51.17;;;28.45;;
59786;SDS011;45672;51.612;5.536;2024-03-07T01:07:47;50.83;;;29.23;;
59786;SDS011;45672;51.612;5.536;2024-03-07T01:10:13;52.40;;;29.13;;
59786;SDS011;45672;51.612;5.536;2024-03-07T01:12:39;50.25;;;27.95;;
59786;SDS011;45672;51.612;5.536;2024-03-07T01:15:05;49.75;;;28.05;;
59786;SDS011;45672;51.612;5.536;2024-03-07T01:17:31;50.97;;;28.80;;
59786;SDS011;45672;51.612;5.536;2024-03-07T01:19:57;51.03;;;28.40;;
59786;SDS011;45672;51.612;5.536;2024-03-07T01:22:23;49.97;;;29.35;;
59786;SDS011;45672;51.612;5.536;2024-03-07T01:24:49;53.72;;;29.48;;
59786;SDS011;45672;51.612;5.536;2024-03-07T01:27:15;51.67;;;29.23;;
59786;SDS011;45672;51.612;5.536;2024-03-07T01:29:41;54.42;;;28.77;;
59786;SDS011;45672;51.612;5.536;2024-03-07T01:32:06;58.53;;;30.67;;
59786;SDS011;45672;51.612;5.536;2024-03-07T01:34:32;57.33;;;30.25;;
59786;SDS011;45672;51.612;5.536;2024-03-07T01:36:57;55.22;;;30.08;;
59786;SDS011;45672;51.612;5.536;2024-03-07T01:39:22;50.97;;;29.70;;
59786;SDS011;45672;51.612;5.536;2024-03-07T01:41:48;53.35;;;29.85;;
59786;SDS011;45672;51.612;5.536;2024-03-07T01:44:13;54.55;;;30.65;;
59786;SDS011;45672;51.612;5.536;2024-03-07T01:46:39;56.40;;;30.33;;
59786;SDS011;45672;51.612;5.536;2024-03-07T01:49:06;56.90;;;30.50;;
59786;SDS011;45672;51.612;5.536;2024-03-07T01:51:32;57.83;;;30.23;;
59786;SDS011;45672;51.612;5.536;2024-03-07T01:53:59;58.47;;;30.45;;
59786;SDS011;45672;51.612;5.536;2024-03-07T01:56:25;57.88;;;29.85;;
59786;SDS011;45672;51.612;5.536;2024-03-07T01:58:50;55.17;;;30.80;;
59786;SDS011;45672;51.612;5.536;2024-03-07T02:01:18;55.78;;;29.38;;
59786;SDS011;45672;51.612;5.536;2024-03-07T02:03:43;58.47;;;30.27;;
59786;SDS011;45672;51.612;5.536;2024-03-07T02:06:09;61.38;;;30.83;;
59786;SDS011;45672;51.612;5.536;2024-03-07T02:08:35;55.25;;;30.80;;
59786;SDS011;45672;51.612;5.536;2024-03-07T02:11:00;57.58;;;29.92;;
59786;SDS011;45672;51.612;5.536;2024-03-07T02:13:26;58.38;;;32.25;;
59786;SDS011;45672;51.612;5.536;2024-03-07T02:15:52;65.85;;;32.15;;
59786;SDS011;45672;51.612;5.536;2024-03-07T02:18:17;57.35;;;29.83;;
59786;SDS011;45672;51.612;5.536;2024-03-07T02:20:45;61.80;;;29.80;;
59786;SDS011;45672;51.612;5.536;2024-03-07T02:23:13;55.63;;;30.35;;
59786;SDS011;45672;51.612;5.536;2024-03-07T02:25:39;60.75;;;30.00;;
59786;SDS011;45672;51.612;5.536;2024-03-07T02:28:05;55.13;;;29.40;;
59786;SDS011;45672;51.612;5.536;2024-03-07T02:30:30;54.67;;;30.77;;
59786;SDS011;45672;51.612;5.536;2024-03-07T02:32:57;57.22;;;29.77;;
59786;SDS011;45672;51.612;5.536;2024-03-07T02:35:24;57.88;;;30.73;;
59786;SDS011;45672;51.612;5.536;2024-03-07T02:37:50;51.85;;;29.75;;
59786;SDS011;45672;51.612;5.536;2024-03-07T02:40:16;57.60;;;30.77;;
59786;SDS011;45672;51.612;5.536;2024-03-07T02:42:41;55.97;;;30.15;;
59786;SDS011;45672;51.612;5.536;2024-03-07T02:45:07;53.97;;;29.77;;
59786;SDS011;45672;51.612;5.536;2024-03-07T02:47:32;57.92;;;29.15;;
59786;SDS011;45672;51.612;5.536;2024-03-07T02:49:58;54.78;;;30.23;;
59786;SDS011;45672;51.612;5.536;2024-03-07T02:52:23;59.47;;;31.30;;
59786;SDS011;45672;51.612;5.536;2024-03-07T02:54:49;61.45;;;31.08;;
59786;SDS011;45672;51.612;5.536;2024-03-07T02:57:14;57.63;;;31.35;;
59786;SDS011;45672;51.612;5.536;2024-03-07T02:59:40;53.47;;;30.05;;
59786;SDS011;45672;51.612;5.536;2024-03-07T03:02:07;56.90;;;30.92;;
59786;SDS011;45672;51.612;5.536;2024-03-07T03:04:32;58.63;;;30.70;;
59786;SDS011;45672;51.612;5.536;2024-03-07T03:06:58;58.50;;;30.27;;
59786;SDS011;45672;51.612;5.536;2024-03-07T03:09:23;56.75;;;30.80;;
59786;SDS011;45672;51.612;5.536;2024-03-07T03:11:48;57.03;;;30.35;;
59786;SDS011;45672;51.612;5.536;2024-03-07T03:14:14;60.90;;;31.70;;
59786;SDS011;45672;51.612;5.536;2024-03-07T03:16:43;56.97;;;30.65;;
59786;SDS011;45672;51.612;5.536;2024-03-07T03:19:09;59.30;;;29.83;;
59786;SDS011;45672;51.612;5.536;2024-03-07T03:21:35;60.53;;;30.33;;
59786;SDS011;45672;51.612;5.536;2024-03-07T03:24:00;58.60;;;31.27;;
59786;SDS011;45672;51.612;5.536;2024-03-07T03:26:27;59.75;;;31.48;;
59786;SDS011;45672;51.612;5.536;2024-03-07T03:28:52;55.30;;;29.15;;
59786;SDS011;45672;51.612;5.536;2024-03-07T03:31:18;59.35;;;31.77;;
59786;SDS011;45672;51.612;5.536;2024-03-07T03:33:44;64.18;;;33.17;;
59786;SDS011;45672;51.612;5.536;2024-03-07T03:36:10;55.60;;;30.83;;
59786;SDS011;45672;51.612;5.536;2024-03-07T03:38:35;56.10;;;28.83;;
59786;SDS011;45672;51.612;5.536;2024-03-07T03:41:01;59.03;;;30.88;;
59786;SDS011;45672;51.612;5.536;2024-03-07T03:43:26;58.08;;;30.55;;
59786;SDS011;45672;51.612;5.536;2024-03-07T03:45:52;54.47;;;28.90;;
59786;SDS011;45672;51.612;5.536;2024-03-07T03:48:17;53.10;;;30.23;;
59786;SDS011;45672;51.612;5.536;2024-03-07T03:50:42;58.45;;;30.27;;
59786;SDS011;45672;51.612;5.536;2024-03-07T03:53:08;57.20;;;30.95;;
59786;SDS011;45672;51.612;5.536;2024-03-07T03:55:33;59.63;;;31.75;;
59786;SDS011;45672;51.612;5.536;2024-03-07T03:57:59;59.45;;;31.95;;
59786;SDS011;45672;51.612;5.536;2024-03-07T04:00:24;59.47;;;31.25;;
59786;SDS011;45672;51.612;5.536;2024-03-07T04:02:50;62.75;;;31.83;;
59786;SDS011;45672;51.612;5.536;2024-03-07T04:05:16;57.67;;;32.05;;
59786;SDS011;45672;51.612;5.536;2024-03-07T04:07:44;59.67;;;31.70;;
59786;SDS011;45672;51.612;5.536;2024-03-07T04:10:10;57.72;;;31.83;;
59786;SDS011;45672;51.612;5.536;2024-03-07T04:12:37;56.08;;;31.33;;
59786;SDS011;45672;51.612;5.536;2024-03-07T04:15:05;56.53;;;31.13;;
59786;SDS011;45672;51.612;5.536;2024-03-07T04:17:35;61.33;;;31.73;;
59786;SDS011;45672;51.612;5.536;2024-03-07T04:20:01;57.58;;;31.98;;
59786;SDS011;45672;51.612;5.536;2024-03-07T04:22:30;62.70;;;30.75;;
59786;SDS011;45672;51.612;5.536;2024-03-07T04:24:56;57.38;;;32.15;;
59786;SDS011;45672;51.612;5.536;2024-03-07T04:27:21;64.22;;;31.52;;
59786;SDS011;45672;51.612;5.536;2024-03-07T04:29:51;52.72;;;28.30;;
59786;SDS011;45672;51.612;5.536;2024-03-07T04:32:16;60.92;;;32.55;;
59786;SDS011;45672;51.612;5.536;2024-03-07T04:34:42;62.60;;;32.97;;
59786;SDS011;45672;51.612;5.536;2024-03-07T04:37:10;62.15;;;30.23;;
59786;SDS011;45672;51.612;5.536;2024-03-07T04:39:36;53.90;;;30.05;;
59786;SDS011;45672;51.612;5.536;2024-03-07T04:42:02;55.58;;;31.17;;
59786;SDS011;45672;51.612;5.536;2024-03-07T04:44:28;60.05;;;32.38;;
59786;SDS011;45672;51.612;5.536;2024-03-07T04:46:54;63.15;;;32.75;;
59786;SDS011;45672;51.612;5.536;2024-03-07T04:49:22;58.30;;;31.73;;
59786;SDS011;45672;51.612;5.536;2024-03-07T04:51:49;59.15;;;30.02;;
59786;SDS011;45672;51.612;5.536;2024-03-07T04:54:15;58.42;;;32.20;;
59786;SDS011;45672;51.612;5.536;2024-03-07T04:56:41;54.13;;;30.58;;
59786;SDS011;45672;51.612;5.536;2024-03-07T04:59:06;56.47;;;31.45;;
59786;SDS011;45672;51.612;5.536;2024-03-07T05:01:31;57.58;;;32.10;;
59786;SDS011;45672;51.612;5.536;2024-03-07T05:03:57;55.13;;;30.27;;
59786;SDS011;45672;51.612;5.536;2024-03-07T05:06:22;61.65;;;32.70;;
59786;SDS011;45672;51.612;5.536;2024-03-07T05:08:47;56.28;;;31.80;;
59786;SDS011;45672;51.612;5.536;2024-03-07T05:11:13;60.47;;;31.70;;
59786;SDS011;45672;51.612;5.536;2024-03-07T05:13:41;58.03;;;28.98;;
59786;SDS011;45672;51.612;5.536;2024-03-07T05:16:07;61.28;;;31.73;;
59786;SDS011;45672;51.612;5.536;2024-03-07T05:18:32;68.50;;;33.53;;
59786;SDS011;45672;51.612;5.536;2024-03-07T05:20:58;58.92;;;31.25;;
59786;SDS011;45672;51.612;5.536;2024-03-07T05:23:43;60.90;;;30.75;;
59786;SDS011;45672;51.612;5.536;2024-03-07T05:26:08;59.70;;;32.38;;
59786;SDS011;45672;51.612;5.536;2024-03-07T05:28:35;58.05;;;32.85;;
59786;SDS011;45672;51.612;5.536;2024-03-07T05:31:01;64.43;;;33.95;;
59786;SDS011;45672;51.612;5.536;2024-03-07T05:33:29;61.03;;;33.38;;
59786;SDS011;45672;51.612;5.536;2024-03-07T05:35:54;64.18;;;33.28;;
59786;SDS011;45672;51.612;5.536;2024-03-07T05:38:27;61.03;;;32.50;;
59786;SDS011;45672;51.612;5.536;2024-03-07T05:40:53;65.88;;;33.83;;
59786;SDS011;45672;51.612;5.536;2024-03-07T05:43:18;63.47;;;33.03;;
59786;SDS011;45672;51.612;5.536;2024-03-07T05:45:44;63.45;;;33.28;;
59786;SDS011;45672;51.612;5.536;2024-03-07T05:48:13;61.15;;;32.95;;
59786;SDS011;45672;51.612;5.536;2024-03-07T05:50:41;58.80;;;32.55;;
59786;SDS011;45672;51.612;5.536;2024-03-07T05:53:06;59.47;;;31.80;;
59786;SDS011;45672;51.612;5.536;2024-03-07T05:55:32;67.15;;;32.38;;
59786;SDS011;45672;51.612;5.536;2024-03-07T05:57:58;62.80;;;31.95;;
59786;SDS011;45672;51.612;5.536;2024-03-07T06:00:23;59.10;;;32.97;;
59786;SDS011;45672;51.612;5.536;2024-03-07T06:02:52;64.00;;;32.58;;
59786;SDS011;45672;51.612;5.536;2024-03-07T06:05:18;63.55;;;33.90;;
59786;SDS011;45672;51.612;5.536;2024-03-07T06:07:44;59.65;;;30.92;;
59786;SDS011;45672;51.612;5.536;2024-03-07T06:10:12;64.47;;;32.75;;
59786;SDS011;45672;51.612;5.536;2024-03-07T06:12:38;57.28;;;31.83;;
59786;SDS011;45672;51.612;5.536;2024-03-07T06:15:10;66.28;;;33.13;;
59786;SDS011;45672;51.612;5.536;2024-03-07T06:17:35;66.53;;;32.75;;
59786;SDS011;45672;51.612;5.536;2024-03-07T06:20:01;59.53;;;32.83;;
59786;SDS011;45672;51.612;5.536;2024-03-07T06:22:26;63.88;;;34.42;;
59786;SDS011;45672;51.612;5.536;2024-03-07T06:24:52;66.35;;;33.67;;
59786;SDS011;45672;51.612;5.536;2024-03-07T06:27:17;61.42;;;34.53;;
59786;SDS011;45672;51.612;5.536;2024-03-07T06:29:51;61.17;;;33.75;;
59786;SDS011;45672;51.612;5.536;2024-03-07T06:32:17;63.08;;;32.10;;
59786;SDS011;45672;51.612;5.536;2024-03-07T06:34:43;69.60;;;32.10;;
59786;SDS011;45672;51.612;5.536;2024-03-07T06:37:08;58.83;;;31.98;;
59786;SDS011;45672;51.612;5.536;2024-03-07T06:39:33;61.58;;;34.03;;
59786;SDS011;45672;51.612;5.536;2024-03-07T06:41:58;61.95;;;32.22;;
59786;SDS011;45672;51.612;5.536;2024-03-07T06:44:24;65.28;;;33.40;;
59786;SDS011;45672;51.612;5.536;2024-03-07T06:46:50;62.20;;;32.92;;
59786;SDS011;45672;51.612;5.536;2024-03-07T06:49:15;60.45;;;33.30;;
59786;SDS011;45672;51.612;5.536;2024-03-07T06:51:41;56.13;;;29.80;;
59786;SDS011;45672;51.612;5.536;2024-03-07T06:54:06;57.75;;;32.53;;
59786;SDS011;45672;51.612;5.536;2024-03-07T06:56:31;56.85;;;32.65;;
59786;SDS011;45672;51.612;5.536;2024-03-07T06:58:57;58.47;;;31.88;;
59786;SDS011;45672;51.612;5.536;2024-03-07T07:01:23;59.65;;;33.13;;
59786;SDS011;45672;51.612;5.536;2024-03-07T07:03:48;58.60;;;32.85;;
59786;SDS011;45672;51.612;5.536;2024-03-07T07:06:14;57.22;;;32.05;;
59786;SDS011;45672;51.612;5.536;2024-03-07T07:08:39;61.75;;;31.70;;
59786;SDS011;45672;51.612;5.536;2024-03-07T07:11:05;54.22;;;32.00;;
59786;SDS011;45672;51.612;5.536;2024-03-07T07:13:31;58.00;;;29.17;;
59786;SDS011;45672;51.612;5.536;2024-03-07T07:15:56;54.63;;;31.58;;
59786;SDS011;45672;51.612;5.536;2024-03-07T07:18:21;58.47;;;32.90;;
59786;SDS011;45672;51.612;5.536;2024-03-07T07:20:48;53.75;;;30.60;;
59786;SDS011;45672;51.612;5.536;2024-03-07T07:23:16;52.97;;;29.95;;
59786;SDS011;45672;51.612;5.536;2024-03-07T07:25:42;52.25;;;30.83;;
59786;SDS011;45672;51.612;5.536;2024-03-07T07:28:07;46.78;;;27.73;;
59786;SDS011;45672;51.612;5.536;2024-03-07T07:30:33;55.97;;;31.25;;
59786;SDS011;45672;51.612;5.536;2024-03-07T07:32:58;52.38;;;31.23;;
59786;SDS011;45672;51.612;5.536;2024-03-07T07:35:23;51.30;;;29.65;;
59786;SDS011;45672;51.612;5.536;2024-03-07T07:37:50;50.25;;;27.58;;
59786;SDS011;45672;51.612;5.536;2024-03-07T07:40:19;46.17;;;26.38;;
59786;SDS011;45672;51.612;5.536;2024-03-07T07:42:47;53.88;;;26.80;;
59786;SDS011;45672;51.612;5.536;2024-03-07T07:45:14;52.33;;;29.80;;
59786;SDS011;45672;51.612;5.536;2024-03-07T07:47:41;52.58;;;29.42;;
59786;SDS011;45672;51.612;5.536;2024-03-07T07:50:12;44.75;;;27.80;;
59786;SDS011;45672;51.612;5.536;2024-03-07T07:52:45;44.05;;;26.00;;
59786;SDS011;45672;51.612;5.536;2024-03-07T07:55:13;40.78;;;26.85;;
59786;SDS011;45672;51.612;5.536;2024-03-07T07:57:46;34.00;;;19.85;;
59786;SDS011;45672;51.612;5.536;2024-03-07T08:00:14;39.83;;;26.33;;
59786;SDS011;45672;51.612;5.536;2024-03-07T08:03:09;43.25;;;25.05;;
59786;SDS011;45672;51.612;5.536;2024-03-07T08:05:34;39.47;;;24.15;;
59786;SDS011;45672;51.612;5.536;2024-03-07T08:08:05;34.53;;;24.13;;
59786;SDS011;45672;51.612;5.536;2024-03-07T08:10:32;40.47;;;25.85;;
59786;SDS011;45672;51.612;5.536;2024-03-07T08:12:58;38.15;;;23.80;;
59786;SDS011;45672;51.612;5.536;2024-03-07T08:15:27;34.03;;;22.73;;
59786;SDS011;45672;51.612;5.536;2024-03-07T08:17:53;32.00;;;21.65;;
59786;SDS011;45672;51.612;5.536;2024-03-07T08:20:20;32.58;;;23.02;;
59786;SDS011;45672;51.612;5.536;2024-03-07T08:22:46;31.63;;;21.35;;
59786;SDS011;45672;51.612;5.536;2024-03-07T08:25:14;33.70;;;22.08;;
59786;SDS011;45672;51.612;5.536;2024-03-07T08:27:41;38.03;;;23.08;;
59786;SDS011;45672;51.612;5.536;2024-03-07T08:30:07;28.65;;;22.00;;
59786;SDS011;45672;51.612;5.536;2024-03-07T08:32:44;35.40;;;21.77;;
59786;SDS011;45672;51.612;5.536;2024-03-07T08:35:11;33.63;;;21.65;;
59786;SDS011;45672;51.612;5.536;2024-03-07T08:37:37;32.60;;;20.25;;
59786;SDS011;45672;51.612;5.536;2024-03-07T08:40:06;30.15;;;21.45;;
59786;SDS011;45672;51.612;5.536;2024-03-07T08:42:35;27.75;;;21.02;;
59786;SDS011;45672;51.612;5.536;2024-03-07T08:45:02;23.70;;;18.63;;
59786;SDS011;45672;51.612;5.536;2024-03-07T08:47:31;26.25;;;20.70;;
59786;SDS011;45672;51.612;5.536;2024-03-07T08:49:58;30.20;;;20.88;;
59786;SDS011;45672;51.612;5.536;2024-03-07T08:52:24;29.73;;;19.23;;
59786;SDS011;45672;51.612;5.536;2024-03-07T08:54:49;26.92;;;19.67;;
59786;SDS011;45672;51.612;5.536;2024-03-07T08:57:15;25.17;;;19.08;;
59786;SDS011;45672;51.612;5.536;2024-03-07T08:59:43;26.85;;;18.95;;
59786;SDS011;45672;51.612;5.536;2024-03-07T09:02:08;25.88;;;19.25;;
59786;SDS011;45672;51.612;5.536;2024-03-07T09:04:35;25.92;;;19.00;;
59786;SDS011;45672;51.612;5.536;2024-03-07T09:07:01;24.25;;;17.90;;
59786;SDS011;45672;51.612;5.536;2024-03-07T09:09:26;20.63;;;15.20;;
59786;SDS011;45672;51.612;5.536;2024-03-07T09:11:51;22.20;;;17.77;;
59786;SDS011;45672;51.612;5.536;2024-03-07T09:14:17;25.63;;;17.98;;
59786;SDS011;45672;51.612;5.536;2024-03-07T09:16:42;21.00;;;17.55;;
59786;SDS011;45672;51.612;5.536;2024-03-07T09:19:08;24.00;;;17.83;;
59786;SDS011;45672;51.612;5.536;2024-03-07T09:21:38;22.48;;;16.58;;
59786;SDS011;45672;51.612;5.536;2024-03-07T09:24:05;22.00;;;17.48;;
59786;SDS011;45672;51.612;5.536;2024-03-07T09:26:32;24.40;;;16.38;;
59786;SDS011;45672;51.612;5.536;2024-03-07T09:28:57;21.02;;;16.17;;
59786;SDS011;45672;51.612;5.536;2024-03-07T09:31:23;18.02;;;16.05;;
59786;SDS011;45672;51.612;5.536;2024-03-07T09:33:48;21.75;;;16.88;;
59786;SDS011;45672;51.612;5.536;2024-03-07T09:36:14;20.77;;;16.17;;
59786;SDS011;45672;51.612;5.536;2024-03-07T09:38:40;20.90;;;16.75;;
59786;SDS011;45672;51.612;5.536;2024-03-07T09:41:05;23.45;;;17.90;;
59786;SDS011;45672;51.612;5.536;2024-03-07T09:43:31;21.27;;;16.77;;
59786;SDS011;45672;51.612;5.536;2024-03-07T09:45:59;21.70;;;17.45;;
59786;SDS011;45672;51.612;5.536;2024-03-07T09:48:26;19.92;;;16.60;;
59786;SDS011;45672;51.612;5.536;2024-03-07T09:50:53;23.50;;;16.35;;
59786;SDS011;45672;51.612;5.536;2024-03-07T09:53:23;18.33;;;15.15;;
59786;SDS011;45672;51.612;5.536;2024-03-07T09:55:50;19.65;;;16.50;;
59786;SDS011;45672;51.612;5.536;2024-03-07T09:58:17;26.35;;;17.08;;
59786;SDS011;45672;51.612;5.536;2024-03-07T10:00:44;22.08;;;17.05;;
59786;SDS011;45672;51.612;5.536;2024-03-07T10:03:10;19.65;;;17.00;;
59786;SDS011;45672;51.612;5.536;2024-03-07T10:05:38;19.70;;;15.68;;
59786;SDS011;45672;51.612;5.536;2024-03-07T10:08:05;17.85;;;14.40;;
59786;SDS011;45672;51.612;5.536;2024-03-07T10:10:32;20.33;;;16.20;;
59786;SDS011;45672;51.612;5.536;2024-03-07T10:12:58;24.77;;;17.20;;
59786;SDS011;45672;51.612;5.536;2024-03-07T10:15:30;19.15;;;14.68;;
59786;SDS011;45672;51.612;5.536;2024-03-07T10:17:56;25.90;;;17.40;;
59786;SDS011;45672;51.612;5.536;2024-03-07T10:20:21;21.05;;;17.10;;
59786;SDS011;45672;51.612;5.536;2024-03-07T10:22:47;20.13;;;16.23;;
59786;SDS011;45672;51.612;5.536;2024-03-07T10:25:16;23.80;;;17.77;;
59786;SDS011;45672;51.612;5.536;2024-03-07T10:27:43;19.75;;;15.32;;
59786;SDS011;45672;51.612;5.536;2024-03-07T10:30:09;21.35;;;16.45;;
59786;SDS011;45672;51.612;5.536;2024-03-07T10:32:35;25.40;;;18.02;;
59786;SDS011;45672;51.612;5.536;2024-03-07T10:35:03;24.92;;;18.10;;
59786;SDS011;45672;51.612;5.536;2024-03-07T10:37:34;25.90;;;18.17;;
59786;SDS011;45672;51.612;5.536;2024-03-07T10:40:00;20.75;;;14.25;;
59786;SDS011;45672;51.612;5.536;2024-03-07T10:42:26;23.40;;;16.95;;
59786;SDS011;45672;51.612;5.536;2024-03-07T10:44:55;28.60;;;18.33;;
59786;SDS011;45672;51.612;5.536;2024-03-07T10:47:28;25.33;;;18.58;;
59786;SDS011;45672;51.612;5.536;2024-03-07T10:50:17;25.73;;;16.52;;
59786;SDS011;45672;51.612;5.536;2024-03-07T10:53:03;26.17;;;16.27;;
59786;SDS011;45672;51.612;5.536;2024-03-07T10:55:40;25.33;;;16.67;;
59786;SDS011;45672;51.612;5.536;2024-03-07T11:01:10;24.42;;;17.45;;
59786;SDS011;45672;51.612;5.536;2024-03-07T11:03:38;24.45;;;15.75;;
59786;SDS011;45672;51.612;5.536;2024-03-07T11:06:04;26.38;;;17.17;;
59786;SDS011;45672;51.612;5.536;2024-03-07T11:08:36;26.63;;;17.85;;
59786;SDS011;45672;51.612;5.536;2024-03-07T11:11:02;24.30;;;17.23;;
59786;SDS011;45672;51.612;5.536;2024-03-07T11:13:28;24.20;;;16.55;;
59786;SDS011;45672;51.612;5.536;2024-03-07T11:15:55;24.23;;;16.35;;
59786;SDS011;45672;51.612;5.536;2024-03-07T11:18:25;23.80;;;15.57;;
59786;SDS011;45672;51.612;5.536;2024-03-07T11:20:51;22.90;;;16.05;;
59786;SDS011;45672;51.612;5.536;2024-03-07T11:23:26;21.98;;;14.85;;
59786;SDS011;45672;51.612;5.536;2024-03-07T11:26:07;24.50;;;15.93;;
59786;SDS011;45672;51.612;5.536;2024-03-07T11:28:34;23.05;;;15.80;;
59786;SDS011;45672;51.612;5.536;2024-03-07T11:31:15;24.05;;;15.80;;
59786;SDS011;45672;51.612;5.536;2024-03-07T11:36:41;23.05;;;14.95;;
59786;SDS011;45672;51.612;5.536;2024-03-07T11:39:22;24.60;;;13.18;;
59786;SDS011;45672;51.612;5.536;2024-03-07T11:42:19;22.02;;;15.00;;
59786;SDS011;45672;51.612;5.536;2024-03-07T11:44:56;20.75;;;15.00;;
59786;SDS011;45672;51.612;5.536;2024-03-07T11:47:26;19.50;;;14.80;;
59786;SDS011;45672;51.612;5.536;2024-03-07T11:50:00;24.45;;;15.77;;
59786;SDS011;45672;51.612;5.536;2024-03-07T11:52:27;23.88;;;16.80;;
59786;SDS011;45672;51.612;5.536;2024-03-07T11:54:53;19.83;;;13.23;;
59786;SDS011;45672;51.612;5.536;2024-03-07T11:57:18;25.40;;;14.63;;
59786;SDS011;45672;51.612;5.536;2024-03-07T11:59:44;21.00;;;14.15;;
59786;SDS011;45672;51.612;5.536;2024-03-07T12:02:12;28.38;;;14.27;;
59786;SDS011;45672;51.612;5.536;2024-03-07T12:04:40;25.27;;;16.48;;
59786;SDS011;45672;51.612;5.536;2024-03-07T12:07:05;24.75;;;15.88;;
59786;SDS011;45672;51.612;5.536;2024-03-07T12:09:31;26.58;;;15.40;;
59786;SDS011;45672;51.612;5.536;2024-03-07T12:12:00;27.25;;;15.93;;
59786;SDS011;45672;51.612;5.536;2024-03-07T12:14:27;19.45;;;13.20;;
59786;SDS011;45672;51.612;5.536;2024-03-07T12:16:52;20.88;;;15.68;;
59786;SDS011;45672;51.612;5.536;2024-03-07T12:19:18;24.55;;;16.35;;
59786;SDS011;45672;51.612;5.536;2024-03-07T12:21:46;21.42;;;14.05;;
59786;SDS011;45672;51.612;5.536;2024-03-07T12:24:13;23.98;;;14.90;;
59786;SDS011;45672;51.612;5.536;2024-03-07T12:26:40;23.48;;;15.60;;
59786;SDS011;45672;51.612;5.536;2024-03-07T12:29:08;23.00;;;15.73;;
59786;SDS011;45672;51.612;5.536;2024-03-07T12:31:36;24.83;;;15.77;;
59786;SDS011;45672;51.612;5.536;2024-03-07T12:34:06;24.50;;;16.35;;
59786;SDS011;45672;51.612;5.536;2024-03-07T12:36:34;30.48;;;16.67;;
59786;SDS011;45672;51.612;5.536;2024-03-07T12:39:21;24.33;;;16.25;;
59786;SDS011;45672;51.612;5.536;2024-03-07T12:41:50;24.23;;;16.38;;
59786;SDS011;45672;51.612;5.536;2024-03-07T12:44:18;22.08;;;14.57;;
59786;SDS011;45672;51.612;5.536;2024-03-07T12:46:47;20.60;;;13.45;;
59786;SDS011;45672;51.612;5.536;2024-03-07T12:49:16;23.13;;;15.27;;
59786;SDS011;45672;51.612;5.536;2024-03-07T12:51:42;23.00;;;16.33;;
59786;SDS011;45672;51.612;5.536;2024-03-07T12:54:07;25.27;;;15.20;;
59786;SDS011;45672;51.612;5.536;2024-03-07T12:56:36;23.25;;;15.13;;
59786;SDS011;45672;51.612;5.536;2024-03-07T12:59:05;20.77;;;15.63;;
59786;SDS011;45672;51.612;5.536;2024-03-07T13:01:34;28.88;;;15.73;;
59786;SDS011;45672;51.612;5.536;2024-03-07T13:04:03;24.10;;;15.02;;
59786;SDS011;45672;51.612;5.536;2024-03-07T13:06:29;17.45;;;13.18;;
59786;SDS011;45672;51.612;5.536;2024-03-07T13:08:58;21.42;;;14.23;;
59786;SDS011;45672;51.612;5.536;2024-03-07T13:11:23;20.50;;;13.55;;
59786;SDS011;45672;51.612;5.536;2024-03-07T13:13:48;20.95;;;14.52;;
59786;SDS011;45672;51.612;5.536;2024-03-07T13:16:14;19.40;;;13.90;;
59786;SDS011;45672;51.612;5.536;2024-03-07T13:18:39;21.95;;;14.20;;
59786;SDS011;45672;51.612;5.536;2024-03-07T13:21:05;23.88;;;15.55;;
59786;SDS011;45672;51.612;5.536;2024-03-07T13:23:31;22.65;;;15.52;;
59786;SDS011;45672;51.612;5.536;2024-03-07T13:25:59;15.43;;;11.90;;
59786;SDS011;45672;51.612;5.536;2024-03-07T13:28:26;22.27;;;15.38;;
59786;SDS011;45672;51.612;5.536;2024-03-07T13:30:53;17.40;;;12.38;;
59786;SDS011;45672;51.612;5.536;2024-03-07T13:33:20;20.90;;;16.25;;
59786;SDS011;45672;51.612;5.536;2024-03-07T13:35:45;21.98;;;12.95;;
59786;SDS011;45672;51.612;5.536;2024-03-07T13:38:11;19.17;;;14.05;;
59786;SDS011;45672;51.612;5.536;2024-03-07T13:40:37;24.10;;;15.90;;
59786;SDS011;45672;51.612;5.536;2024-03-07T13:43:04;22.48;;;15.85;;
59786;SDS011;45672;51.612;5.536;2024-03-07T13:45:31;19.08;;;14.57;;
59786;SDS011;45672;51.612;5.536;2024-03-07T13:48:04;24.52;;;16.73;;
59786;SDS011;45672;51.612;5.536;2024-03-07T13:50:30;22.63;;;16.00;;
59786;SDS011;45672;51.612;5.536;2024-03-07T13:52:57;27.17;;;16.42;;
59786;SDS011;45672;51.612;5.536;2024-03-07T13:58:24;23.33;;;15.38;;
59786;SDS011;45672;51.612;5.536;2024-03-07T14:00:55;23.58;;;16.08;;
59786;SDS011;45672;51.612;5.536;2024-03-07T14:12:04;22.05;;;16.27;;
59786;SDS011;45672;51.612;5.536;2024-03-07T14:23:06;24.02;;;15.40;;
59786;SDS011;45672;51.612;5.536;2024-03-07T14:31:19;22.58;;;17.00;;
59786;SDS011;45672;51.612;5.536;2024-03-07T14:36:32;27.67;;;16.95;;
59786;SDS011;45672;51.612;5.536;2024-03-07T14:39:05;21.40;;;14.77;;
59786;SDS011;45672;51.612;5.536;2024-03-07T14:41:45;21.92;;;16.08;;
59786;SDS011;45672;51.612;5.536;2024-03-07T14:44:14;26.33;;;15.13;;
59786;SDS011;45672;51.612;5.536;2024-03-07T14:46:40;20.27;;;16.27;;
59786;SDS011;45672;51.612;5.536;2024-03-07T14:49:06;23.75;;;15.82;;
59786;SDS011;45672;51.612;5.536;2024-03-07T14:51:33;21.95;;;16.17;;
59786;SDS011;45672;51.612;5.536;2024-03-07T14:53:59;21.67;;;16.00;;
59786;SDS011;45672;51.612;5.536;2024-03-07T14:56:25;23.55;;;17.85;;